createdAt,value
2019-01-26T00:01:58.591Z,94.00
2019-01-26T00:04:28.226Z,94.00
2019-01-26T00:06:57.793Z,94.20
2019-01-26T00:09:27.358Z,94.20
2019-01-26T00:11:56.850Z,94.20
2019-01-26T00:14:26.379Z,94.20
2019-01-26T00:16:55.939Z,94.40
2019-01-26T00:19:25.432Z,94.40
2019-01-26T00:21:55.214Z,94.40
2019-01-26T00:24:24.819Z,94.40
2019-01-26T00:26:54.320Z,94.40
2019-01-26T00:29:24.363Z,94.40
2019-01-26T00:31:53.877Z,94.30
2019-01-26T00:34:23.519Z,94.40
2019-01-26T00:36:53.126Z,94.50
2019-01-26T00:39:22.619Z,94.40
2019-01-26T00:41:52.356Z,94.50
2019-01-26T00:44:21.992Z,94.60
2019-01-26T00:46:51.491Z,94.30
2019-01-26T00:49:21.099Z,94.70
2019-01-26T00:51:50.700Z,94.60
2019-01-26T00:54:20.198Z,94.80
2019-01-26T00:56:49.696Z,94.90
2019-01-26T00:59:19.922Z,95.00
2019-01-26T01:01:49.557Z,94.70
2019-01-26T01:04:19.123Z,94.70
2019-01-26T01:06:48.639Z,94.70
2019-01-26T01:09:19.235Z,94.70
2019-01-26T01:11:50.431Z,94.70
2019-01-26T01:14:19.955Z,94.70
2019-01-26T01:16:49.443Z,94.70
2019-01-26T01:19:18.941Z,94.80
2019-01-26T01:21:48.586Z,94.80
2019-01-26T01:24:18.279Z,94.90
2019-01-26T01:26:48.344Z,95.00
2019-01-26T01:29:17.835Z,94.80
2019-01-26T01:31:49.387Z,94.80
2019-01-26T01:34:18.889Z,94.80
2019-01-26T01:36:48.539Z,94.70
2019-01-26T01:39:18.046Z,94.60
2019-01-26T01:41:48.705Z,94.70
2019-01-26T01:44:18.305Z,94.60
2019-01-26T01:46:47.874Z,94.60
2019-01-26T01:49:19.002Z,94.60
2019-01-26T01:51:48.610Z,94.70
2019-01-26T01:54:18.111Z,94.70
2019-01-26T01:56:47.717Z,94.70
2019-01-26T01:59:17.291Z,94.80
2019-01-26T02:01:47.338Z,94.90
2019-01-26T02:04:16.903Z,94.70
2019-01-26T02:06:46.513Z,94.60
2019-01-26T02:09:16.007Z,94.70
2019-01-26T02:11:48.615Z,94.60
2019-01-26T02:14:18.146Z,94.50
2019-01-26T02:16:50.131Z,94.50
2019-01-26T02:19:19.048Z,94.50
2019-01-26T02:21:48.713Z,94.60
2019-01-26T02:24:18.210Z,94.60
2019-01-26T02:26:47.704Z,94.60
2019-01-26T02:29:17.236Z,94.70
2019-01-26T02:31:46.730Z,94.70
2019-01-26T02:34:16.302Z,94.70
2019-01-26T02:36:48.043Z,94.50
2019-01-26T02:39:17.598Z,94.50
2019-01-26T02:41:47.180Z,94.50
2019-01-26T02:44:17.391Z,94.40
2019-01-26T02:46:47.079Z,94.30
2019-01-26T02:49:16.575Z,94.40
2019-01-26T02:51:46.171Z,94.20
2019-01-26T02:54:15.727Z,94.20
2019-01-26T02:56:45.216Z,94.10
2019-01-26T02:59:14.738Z,94.20
2019-01-26T03:01:44.306Z,94.20
2019-01-26T03:04:13.871Z,94.20
2019-01-26T03:06:43.390Z,94.10
2019-01-26T03:09:13.014Z,94.10
2019-01-26T03:11:42.592Z,94.00
2019-01-26T03:14:12.180Z,93.60
2019-01-26T03:16:41.738Z,93.50
2019-01-26T03:19:11.372Z,92.90
2019-01-26T03:21:40.972Z,93.10
2019-01-26T03:24:10.693Z,92.80
2019-01-26T03:26:40.179Z,92.70
2019-01-26T03:29:09.702Z,92.60
2019-01-26T03:31:39.263Z,92.30
2019-01-26T03:34:08.902Z,92.40
2019-01-26T03:36:39.062Z,92.40
2019-01-26T03:39:08.935Z,92.40
2019-01-26T03:41:38.648Z,92.40
2019-01-26T03:44:08.185Z,92.40
2019-01-26T03:46:37.686Z,92.50
2019-01-26T03:49:07.256Z,92.40
2019-01-26T03:51:36.788Z,92.40
2019-01-26T03:54:06.360Z,92.60
2019-01-26T03:56:35.932Z,92.50
2019-01-26T03:59:05.599Z,92.60
2019-01-26T04:01:35.238Z,92.50
2019-01-26T04:04:05.118Z,92.60
2019-01-26T04:06:34.718Z,92.60
2019-01-26T04:09:07.222Z,92.50
2019-01-26T04:11:36.808Z,92.40
2019-01-26T04:14:06.416Z,92.60
2019-01-26T04:16:36.063Z,92.50
2019-01-26T04:19:05.636Z,92.30
2019-01-26T04:21:35.238Z,92.40
2019-01-26T04:24:04.973Z,92.60
2019-01-26T04:26:34.527Z,92.40
2019-01-26T04:29:04.421Z,92.30
2019-01-26T04:31:34.185Z,92.50
2019-01-26T04:34:03.764Z,92.80
2019-01-26T04:36:33.361Z,91.90
2019-01-26T04:39:04.791Z,91.90
2019-01-26T04:41:34.399Z,91.90
2019-01-26T04:44:03.990Z,92.20
2019-01-26T04:46:33.549Z,91.40
2019-01-26T04:49:03.059Z,90.80
2019-01-26T04:51:32.578Z,91.00
2019-01-26T04:54:02.071Z,90.20
2019-01-26T04:56:31.566Z,89.60
2019-01-26T04:59:01.228Z,90.30
2019-01-26T05:01:30.787Z,90.10
2019-01-26T05:04:00.283Z,89.60
2019-01-26T05:06:30.286Z,89.40
2019-01-26T05:08:59.846Z,90.00
2019-01-26T05:11:29.326Z,90.10
2019-01-26T05:13:58.846Z,90.10
2019-01-26T05:16:28.402Z,89.40
2019-01-26T05:18:58.255Z,89.50
2019-01-26T05:21:27.910Z,89.80
2019-01-26T05:23:57.396Z,90.00
2019-01-26T05:26:26.950Z,90.00
2019-01-26T05:28:56.467Z,90.10
2019-01-26T05:31:26.198Z,90.30
2019-01-26T05:33:55.756Z,90.50
2019-01-26T05:36:25.746Z,90.80
2019-01-26T05:38:57.165Z,90.90
2019-01-26T05:41:26.795Z,90.80
2019-01-26T05:43:56.374Z,90.50
2019-01-26T05:46:25.941Z,90.80
2019-01-26T05:48:55.427Z,90.50
2019-01-26T05:51:25.904Z,90.60
2019-01-26T05:53:55.463Z,90.70
2019-01-26T05:56:24.971Z,90.40
2019-01-26T05:58:54.898Z,90.70
2019-01-26T06:01:42.601Z,90.30
2019-01-26T06:04:12.260Z,90.40
2019-01-26T06:06:41.745Z,90.40
2019-01-26T06:09:11.374Z,91.00
2019-01-26T06:11:41.611Z,90.80
2019-01-26T06:14:11.252Z,90.80
2019-01-26T06:16:40.911Z,91.10
2019-01-26T06:19:10.818Z,90.90
2019-01-26T06:21:40.308Z,90.90
2019-01-26T06:24:09.942Z,90.90
2019-01-26T06:26:39.458Z,91.00
2019-01-26T06:29:08.959Z,91.00
2019-01-26T06:31:38.453Z,90.90
2019-01-26T06:34:08.038Z,90.90
2019-01-26T06:36:37.538Z,91.00
2019-01-26T06:39:07.646Z,91.20
2019-01-26T06:41:37.403Z,91.20
2019-01-26T06:44:06.958Z,91.10
2019-01-26T06:46:36.519Z,91.50
2019-01-26T06:49:06.034Z,90.90
2019-01-26T06:51:35.527Z,90.70
2019-01-26T06:54:05.086Z,90.90
2019-01-26T06:56:34.670Z,90.90
2019-01-26T06:59:04.231Z,90.90
2019-01-26T07:01:33.726Z,90.90
2019-01-26T07:04:03.318Z,90.80
2019-01-26T07:06:34.442Z,90.80
2019-01-26T07:09:06.174Z,91.10
2019-01-26T07:11:35.683Z,91.10
2019-01-26T07:14:05.547Z,91.20
2019-01-26T07:16:35.111Z,91.40
2019-01-26T07:19:04.767Z,91.50
2019-01-26T07:21:34.414Z,91.60
2019-01-26T07:24:03.974Z,91.80
2019-01-26T07:26:33.499Z,92.20
2019-01-26T07:29:02.990Z,92.50
2019-01-26T07:31:33.467Z,92.60
2019-01-26T07:34:03.063Z,92.50
2019-01-26T07:36:32.622Z,92.60
2019-01-26T07:39:02.111Z,92.80
2019-01-26T07:41:31.699Z,92.50
2019-01-26T07:44:01.186Z,92.40
2019-01-26T07:46:30.748Z,92.30
2019-01-26T07:49:00.927Z,92.30
2019-01-26T07:51:30.415Z,92.40
2019-01-26T07:54:00.051Z,92.30
2019-01-26T07:56:29.571Z,92.20
2019-01-26T07:58:59.200Z,92.20
2019-01-26T08:01:28.691Z,92.40
2019-01-26T08:03:58.215Z,92.40
2019-01-26T08:06:27.710Z,92.30
2019-01-26T08:08:57.201Z,92.10
2019-01-26T08:11:26.715Z,92.30
2019-01-26T08:13:56.348Z,92.80
2019-01-26T08:16:25.882Z,93.20
2019-01-26T08:18:55.939Z,93.60
2019-01-26T08:21:25.478Z,93.70
2019-01-26T08:23:54.967Z,94.60
2019-01-26T08:26:24.947Z,95.10
2019-01-26T08:28:54.482Z,95.40
2019-01-26T08:31:24.041Z,95.50
2019-01-26T08:33:55.213Z,95.60
2019-01-26T08:36:24.838Z,95.60
2019-01-26T08:38:59.481Z,95.70
2019-01-26T08:59:28.017Z,96.30
2019-01-26T09:01:59.252Z,96.30
2019-01-26T09:19:59.128Z,94.90
2019-01-26T09:26:17.107Z,94.50
2019-01-26T09:28:46.747Z,94.70
2019-01-26T09:31:16.384Z,94.80
2019-01-26T09:38:53.357Z,94.50
2019-01-26T09:41:26.519Z,94.50
2019-01-26T09:43:56.014Z,94.30
2019-01-26T09:46:25.645Z,93.80
2019-01-26T09:48:57.014Z,94.20
2019-01-26T09:51:28.187Z,93.60
2019-01-26T09:53:57.834Z,93.50
2019-01-26T10:01:36.400Z,93.00
2019-01-26T10:04:06.117Z,92.80
2019-01-26T10:06:35.915Z,92.90
2019-01-26T10:09:10.007Z,92.90
2019-01-26T10:11:39.533Z,93.00
2019-01-26T10:14:09.469Z,92.60
2019-01-26T10:16:40.588Z,91.90
2019-01-26T10:19:10.081Z,91.90
2019-01-26T10:21:40.835Z,92.10
2019-01-26T10:26:44.283Z,91.50
2019-01-26T10:29:14.304Z,91.40
2019-01-26T10:31:44.240Z,91.20
2019-01-26T10:34:13.927Z,90.90
2019-01-26T10:42:00.658Z,91.30
2019-01-26T10:44:30.299Z,91.20
2019-01-26T10:47:00.011Z,91.60
2019-01-26T10:49:30.563Z,91.40
2019-01-26T10:52:00.200Z,91.60
2019-01-26T10:54:29.831Z,91.40
2019-01-26T10:57:01.423Z,91.60
2019-01-26T10:59:30.924Z,91.50
2019-01-26T11:02:00.507Z,91.90
2019-01-26T11:04:31.120Z,91.90
2019-01-26T11:07:08.240Z,92.00
2019-01-26T11:09:37.832Z,92.20
2019-01-26T11:12:07.466Z,92.50
2019-01-26T11:14:37.095Z,92.90
2019-01-26T11:17:06.750Z,93.00
2019-01-26T11:19:36.318Z,93.20
2019-01-26T11:22:05.967Z,93.50
2019-01-26T11:24:35.725Z,93.70
2019-01-26T11:27:05.445Z,94.10
2019-01-26T11:29:35.036Z,94.30
2019-01-26T11:32:05.666Z,94.40
2019-01-26T11:34:35.173Z,94.40
2019-01-26T11:37:04.825Z,94.70
2019-01-26T11:39:34.480Z,94.90
2019-01-26T11:42:04.161Z,95.00
2019-01-26T11:44:33.642Z,94.90
2019-01-26T11:47:03.222Z,94.70
2019-01-26T11:49:32.711Z,94.90
2019-01-26T11:52:08.229Z,94.50
2019-01-26T11:54:39.823Z,94.10
2019-01-26T11:57:11.081Z,94.00
2019-01-26T11:59:42.460Z,93.40
2019-01-26T12:02:13.751Z,93.10
2019-01-26T12:04:45.098Z,92.90
2019-01-26T12:07:14.762Z,93.00
2019-01-26T12:09:44.402Z,92.70
2019-01-26T12:12:14.129Z,92.70
2019-01-26T12:14:43.792Z,92.80
2019-01-26T12:17:13.379Z,93.10
2019-01-26T12:19:42.949Z,92.90
2019-01-26T12:22:12.624Z,93.10
2019-01-26T12:24:42.144Z,92.80
2019-01-26T12:27:11.704Z,92.80
2019-01-26T12:29:41.381Z,92.90
2019-01-26T12:32:11.021Z,93.00
2019-01-26T12:34:40.598Z,92.90
2019-01-26T12:37:10.263Z,93.30
2019-01-26T12:39:39.902Z,93.70
2019-01-26T12:42:09.390Z,94.20
2019-01-26T12:44:38.996Z,94.40
2019-01-26T12:47:08.735Z,94.50
2019-01-26T12:49:38.496Z,94.70
2019-01-26T12:52:08.175Z,94.70
2019-01-26T12:54:37.910Z,94.80
2019-01-26T12:57:07.562Z,94.60
2019-01-26T12:59:37.174Z,94.10
2019-01-26T13:02:07.013Z,93.70
2019-01-26T13:04:36.670Z,93.50
2019-01-26T13:07:25.694Z,93.40
2019-01-26T13:09:55.411Z,93.00
2019-01-26T13:12:25.051Z,92.70
2019-01-26T13:14:54.712Z,92.80
2019-01-26T13:17:24.391Z,92.80
2019-01-26T13:19:53.964Z,92.80
2019-01-26T13:22:23.660Z,92.80
2019-01-26T13:24:53.357Z,92.90
2019-01-26T13:27:22.994Z,92.50
2019-01-26T13:29:52.674Z,92.70
2019-01-26T13:32:22.317Z,92.60
2019-01-26T13:34:51.893Z,92.40
2019-01-26T13:37:21.650Z,92.80
2019-01-26T13:39:51.276Z,92.40
2019-01-26T13:42:20.964Z,92.40
2019-01-26T13:44:50.634Z,92.00
2019-01-26T13:47:23.174Z,92.00
2019-01-26T13:49:52.806Z,91.60
2019-01-26T13:52:22.423Z,91.80
2019-01-26T13:54:51.991Z,91.80
2019-01-26T13:57:21.560Z,92.00
2019-01-26T13:59:51.321Z,91.50
2019-01-26T14:02:20.900Z,91.60
2019-01-26T14:04:50.555Z,91.70
2019-01-26T14:07:20.259Z,91.70
2019-01-26T14:09:58.914Z,91.70
2019-01-26T14:12:31.435Z,91.40
2019-01-26T14:15:01.072Z,91.40
2019-01-26T14:17:30.592Z,91.40
2019-01-26T14:20:00.192Z,91.60
2019-01-26T14:22:29.789Z,91.30
2019-01-26T14:24:59.302Z,91.30
2019-01-26T14:27:28.847Z,91.40
2019-01-26T14:29:58.424Z,91.10
2019-01-26T14:32:27.958Z,90.90
2019-01-26T14:34:57.494Z,90.30
2019-01-26T14:37:27.249Z,89.60
2019-01-26T14:39:56.893Z,89.90
2019-01-26T14:42:26.587Z,90.00
2019-01-26T14:44:56.249Z,90.00
2019-01-26T14:47:25.908Z,90.20
2019-01-26T14:49:58.608Z,90.20
2019-01-26T14:52:26.808Z,90.30
2019-01-26T14:54:56.525Z,90.20
2019-01-26T14:57:26.834Z,90.20
2019-01-26T14:59:56.479Z,90.30
2019-01-26T15:02:26.135Z,90.30
2019-01-26T15:04:55.738Z,90.40
2019-01-26T15:07:25.399Z,90.50
2019-01-26T15:09:55.048Z,90.50
2019-01-26T15:12:24.581Z,90.30
2019-01-26T15:14:54.248Z,90.50
2019-01-26T15:17:23.754Z,90.30
2019-01-26T15:19:58.249Z,90.20
2019-01-26T15:22:28.460Z,90.30
2019-01-26T15:24:58.137Z,90.30
2019-01-26T15:27:28.085Z,90.30
2019-01-26T15:29:57.745Z,90.40
2019-01-26T15:32:27.331Z,90.40
2019-01-26T15:34:57.009Z,90.20
2019-01-26T15:37:26.664Z,90.20
2019-01-26T15:39:56.293Z,90.20
2019-01-26T15:42:25.834Z,90.10
2019-01-26T15:45:03.252Z,90.10
2019-01-26T15:47:33.205Z,90.20
2019-01-26T15:50:02.933Z,90.30
2019-01-26T15:52:32.652Z,90.50
2019-01-26T15:55:02.453Z,90.50
2019-01-26T15:57:32.196Z,90.70
2019-01-26T16:00:02.490Z,90.50
2019-01-26T16:02:32.111Z,90.80
2019-01-26T16:05:01.706Z,91.80
2019-01-26T16:07:31.455Z,92.40
2019-01-26T16:10:01.136Z,92.90
2019-01-26T16:12:30.654Z,93.00
2019-01-26T16:15:00.360Z,93.30
2019-01-26T16:17:30.099Z,93.50
2019-01-26T16:19:59.593Z,94.00
2019-01-26T16:22:29.168Z,94.40
2019-01-26T16:24:59.281Z,94.70
2019-01-26T16:27:28.930Z,94.70
2019-01-26T16:29:58.575Z,95.60
2019-01-26T16:32:28.322Z,95.60
2019-01-26T16:34:57.967Z,96.40
2019-01-26T16:37:27.543Z,96.30
2019-01-26T16:39:57.197Z,96.50
2019-01-26T16:42:26.833Z,96.50
2019-01-26T16:45:16.983Z,96.50
2019-01-26T16:47:46.607Z,96.80
2019-01-26T16:50:28.084Z,97.10
2019-01-26T16:52:58.040Z,97.10
2019-01-26T16:55:27.603Z,96.80
2019-01-26T16:57:57.327Z,97.00
2019-01-26T17:00:39.079Z,97.70
2019-01-26T17:03:08.835Z,97.60
2019-01-26T17:05:38.482Z,98.10
2019-01-26T17:08:09.349Z,98.00
2019-01-26T17:10:39.208Z,97.60
2019-01-26T17:13:12.266Z,98.00
2019-01-26T17:15:41.926Z,97.80
2019-01-26T17:18:13.927Z,97.80
2019-01-26T17:20:43.324Z,97.90
2019-01-26T17:23:12.988Z,98.30
2019-01-26T17:25:42.655Z,98.30
2019-01-26T17:28:13.666Z,98.20
2019-01-26T17:30:43.814Z,98.20
2019-01-26T17:33:13.582Z,98.20
2019-01-26T17:35:43.309Z,98.10
2019-01-26T17:38:12.890Z,98.10
2019-01-26T17:40:42.550Z,98.10
2019-01-26T17:43:12.209Z,98.60
2019-01-26T17:45:41.862Z,98.40
2019-01-26T17:48:12.225Z,98.20
2019-01-26T17:50:42.520Z,98.10
2019-01-26T17:53:12.390Z,97.80
2019-01-26T17:55:42.588Z,97.90
2019-01-26T17:58:12.321Z,97.60
2019-01-26T18:00:43.692Z,97.40
2019-01-26T18:03:13.302Z,97.00
2019-01-26T18:05:42.955Z,96.40
2019-01-26T18:08:12.612Z,96.50
2019-01-26T18:10:45.551Z,96.90
2019-01-26T18:13:15.139Z,96.50
2019-01-26T18:15:44.789Z,96.20
2019-01-26T18:18:14.563Z,96.60
2019-01-26T18:20:49.309Z,96.70
2019-01-26T18:23:20.391Z,96.10
2019-01-26T18:25:50.411Z,95.90
2019-01-26T18:28:20.140Z,96.20
2019-01-26T18:30:49.863Z,96.20
2019-01-26T18:33:19.643Z,96.00
2019-01-26T18:35:49.318Z,95.70
2019-01-26T18:38:18.977Z,95.60
2019-01-26T18:40:48.722Z,96.00
2019-01-26T18:43:18.295Z,96.00
2019-01-26T18:45:47.884Z,95.40
2019-01-26T18:48:17.479Z,95.30
2019-01-26T18:50:48.948Z,94.60
2019-01-26T18:53:18.527Z,94.80
2019-01-26T18:55:48.274Z,94.90
2019-01-26T18:58:18.016Z,94.50
2019-01-26T19:00:48.347Z,94.40
2019-01-26T19:03:24.193Z,94.70
2019-01-26T19:05:56.277Z,94.50
2019-01-26T19:08:25.919Z,94.80
2019-01-26T19:10:55.604Z,95.00
2019-01-26T19:13:25.252Z,94.70
2019-01-26T19:15:54.975Z,93.80
2019-01-26T19:18:24.582Z,93.70
2019-01-26T19:20:54.207Z,93.90
2019-01-26T19:23:23.860Z,93.50
2019-01-26T19:25:54.135Z,93.90
2019-01-26T19:28:24.418Z,93.20
2019-01-26T19:30:54.190Z,93.60
2019-01-26T19:33:24.233Z,93.90
2019-01-26T19:35:53.951Z,93.80
2019-01-26T19:38:23.592Z,93.90
2019-01-26T19:40:53.367Z,94.20
2019-01-26T19:43:25.929Z,93.90
2019-01-26T19:45:55.600Z,94.20
2019-01-26T19:48:25.144Z,94.30
2019-01-26T19:50:54.857Z,94.50
2019-01-26T19:53:24.584Z,94.20
2019-01-26T19:55:54.391Z,94.40
2019-01-26T19:58:24.184Z,94.50
2019-01-26T20:00:53.884Z,94.40
2019-01-26T20:03:23.576Z,94.80
2019-01-26T20:05:53.319Z,94.40
2019-01-26T20:08:23.044Z,94.80
2019-01-26T20:11:12.056Z,94.20
2019-01-26T20:13:41.702Z,93.60
2019-01-26T20:16:11.350Z,93.80
2019-01-26T20:18:41.023Z,94.00
2019-01-26T20:21:17.503Z,93.80
2019-01-26T20:23:42.234Z,94.10
2019-01-26T20:26:11.909Z,94.10
2019-01-26T20:28:41.485Z,94.10
2019-01-26T20:31:11.084Z,94.30
2019-01-26T20:33:40.749Z,94.40
2019-01-26T20:36:16.143Z,94.30
2019-01-26T20:38:45.743Z,94.40
2019-01-26T20:41:15.424Z,94.90
2019-01-26T20:43:45.148Z,94.40
2019-01-26T20:46:15.009Z,94.60
2019-01-26T20:48:44.720Z,95.00
2019-01-26T20:51:17.551Z,95.50
2019-01-26T20:53:47.212Z,95.70
2019-01-26T20:56:16.791Z,95.70
2019-01-26T20:58:46.377Z,95.60
2019-01-26T21:01:21.981Z,95.60
2019-01-26T21:03:51.705Z,95.30
2019-01-26T21:06:21.351Z,95.80
2019-01-26T21:08:50.963Z,95.50
2019-01-26T21:11:20.554Z,95.40
2019-01-26T21:13:50.072Z,95.80
2019-01-26T21:16:19.759Z,95.40
2019-01-26T21:18:49.408Z,95.60
2019-01-26T21:21:19.917Z,95.60
2019-01-26T21:23:49.560Z,95.70
2019-01-26T21:26:19.144Z,96.20
2019-01-26T21:28:48.802Z,95.80
2019-01-26T21:31:18.558Z,96.30
2019-01-26T21:33:48.273Z,96.20
2019-01-26T21:36:17.791Z,96.10
2019-01-26T21:38:47.509Z,95.90
2019-01-26T21:41:17.240Z,95.60
2019-01-26T21:43:46.884Z,96.20
2019-01-26T21:46:16.652Z,96.00
2019-01-26T21:48:46.385Z,96.10
2019-01-26T21:51:16.034Z,96.50
2019-01-26T21:53:45.632Z,96.40
2019-01-26T21:56:15.298Z,96.60
2019-01-26T21:58:44.965Z,96.80
2019-01-26T22:01:14.637Z,96.80
2019-01-26T22:03:44.591Z,96.60
2019-01-26T22:06:14.527Z,96.40
2019-01-26T22:08:44.295Z,96.60
2019-01-26T22:11:13.883Z,96.70
2019-01-26T22:13:43.388Z,97.00
2019-01-26T22:16:13.012Z,96.80
2019-01-26T22:18:43.566Z,96.30
2019-01-26T22:21:13.240Z,95.90
2019-01-26T22:23:42.916Z,95.90
2019-01-26T22:26:12.674Z,95.50
2019-01-26T22:28:42.225Z,95.70
2019-01-26T22:31:12.874Z,95.90
2019-01-26T22:33:42.519Z,96.00
2019-01-26T22:36:12.171Z,96.00
2019-01-26T22:38:41.794Z,96.10
2019-01-26T22:41:11.578Z,96.20
2019-01-26T22:43:44.143Z,96.20
2019-01-26T22:46:13.891Z,96.20
2019-01-26T22:48:43.460Z,96.10
2019-01-26T22:51:13.114Z,96.00
2019-01-26T22:53:42.727Z,96.40
2019-01-26T22:56:12.313Z,96.80
2019-01-26T22:58:41.992Z,97.50
2019-01-26T23:01:14.187Z,97.20
2019-01-26T23:03:52.736Z,97.40
2019-01-26T23:06:28.363Z,97.30
2019-01-26T23:09:00.950Z,97.30
2019-01-26T23:11:54.434Z,96.80
2019-01-26T23:14:41.832Z,96.60
2019-01-26T23:17:26.306Z,96.70
2019-01-26T23:19:58.887Z,96.70
2019-01-26T23:22:46.299Z,96.50
2019-01-26T23:25:18.956Z,96.40
2019-01-26T23:28:00.601Z,96.50
2019-01-26T23:30:41.346Z,96.10
2019-01-26T23:33:12.680Z,96.30
2019-01-26T23:35:42.461Z,96.60
2019-01-26T23:38:12.175Z,96.40
2019-01-26T23:40:44.095Z,96.30
2019-01-26T23:43:13.821Z,96.50
2019-01-26T23:45:43.359Z,96.60
2019-01-26T23:48:13.041Z,96.70
2019-01-26T23:50:42.725Z,96.70
2019-01-26T23:53:12.284Z,96.90
2019-01-26T23:55:41.905Z,96.90
2019-01-26T23:58:11.565Z,96.40
